createdAt,value
2023-04-30T00:00:35.747Z,8.35
2023-04-30T00:03:02.294Z,7.10
2023-04-30T00:05:28.774Z,10.20
2023-04-30T00:07:55.251Z,6.68
2023-04-30T00:10:21.659Z,10.90
2023-04-30T00:12:48.025Z,11.52
2023-04-30T00:15:14.386Z,7.80
2023-04-30T00:17:40.908Z,12.85
2023-04-30T00:20:08.223Z,8.43
2023-04-30T00:22:34.658Z,9.80
2023-04-30T00:25:01.320Z,8.50
2023-04-30T00:27:28.142Z,12.33
2023-04-30T00:29:55.555Z,8.75
2023-04-30T00:32:22.345Z,9.60
2023-04-30T00:34:48.816Z,13.50
2023-04-30T00:37:15.295Z,14.90
2023-04-30T00:39:41.948Z,10.50
2023-04-30T00:42:08.308Z,6.40
2023-04-30T00:44:34.650Z,9.57
2023-04-30T00:47:00.980Z,8.63
2023-04-30T00:49:27.348Z,8.50
2023-04-30T00:51:54.400Z,6.30
2023-04-30T00:54:21.420Z,8.75
2023-04-30T00:56:47.996Z,5.90
2023-04-30T00:59:14.819Z,8.95
2023-04-30T01:01:41.928Z,6.03
2023-04-30T01:04:08.484Z,10.53
2023-04-30T01:06:35.055Z,6.30
2023-04-30T01:09:01.727Z,6.47
2023-04-30T01:12:03.600Z,6.28
2023-04-30T01:14:35.984Z,8.35
2023-04-30T01:17:11.232Z,11.00
2023-04-30T01:19:45.130Z,6.18
2023-04-30T01:22:35.304Z,5.90
2023-04-30T01:25:12.593Z,7.05
2023-04-30T01:28:06.865Z,7.13
2023-04-30T01:30:34.897Z,11.30
2023-04-30T01:33:02.269Z,6.57
2023-04-30T01:36:07.218Z,9.52
2023-04-30T01:38:36.513Z,6.53
2023-04-30T01:41:08.981Z,6.65
2023-04-30T01:44:01.185Z,8.70
2023-04-30T01:46:31.246Z,11.18
2023-04-30T01:49:19.591Z,6.32
2023-04-30T01:51:48.230Z,8.48
2023-04-30T01:54:26.990Z,6.18
2023-04-30T01:57:07.592Z,5.83
2023-04-30T01:59:39.615Z,6.97
2023-04-30T02:02:06.666Z,8.07
2023-04-30T02:04:33.296Z,7.50
2023-04-30T02:06:59.902Z,4.05
2023-04-30T02:09:26.409Z,7.83
2023-04-30T02:11:52.776Z,5.53
2023-04-30T02:14:19.118Z,5.60
2023-04-30T02:16:45.556Z,6.05
2023-04-30T02:19:12.305Z,6.43
2023-04-30T02:21:38.668Z,5.03
2023-04-30T02:24:05.222Z,5.47
2023-04-30T02:26:31.613Z,8.40
2023-04-30T02:28:58.260Z,5.75
2023-04-30T02:31:24.685Z,4.82
2023-04-30T02:33:51.041Z,6.30
2023-04-30T02:36:17.350Z,7.30
2023-04-30T02:38:43.808Z,6.35
2023-04-30T02:41:10.175Z,7.93
2023-04-30T02:43:36.494Z,6.78
2023-04-30T02:46:02.920Z,5.10
2023-04-30T02:48:29.302Z,5.68
2023-04-30T02:50:55.688Z,6.10
2023-04-30T02:53:22.077Z,8.25
2023-04-30T02:55:48.452Z,4.55
2023-04-30T02:58:14.876Z,9.27
2023-04-30T03:00:41.497Z,5.20
2023-04-30T03:03:08.104Z,4.72
2023-04-30T03:05:34.637Z,3.50
2023-04-30T03:08:01.009Z,6.28
2023-04-30T03:10:27.493Z,3.83
2023-04-30T03:12:54.108Z,5.70
2023-04-30T03:15:20.866Z,6.18
2023-04-30T03:17:47.284Z,6.38
2023-04-30T03:20:14.250Z,4.72
2023-04-30T03:22:41.024Z,6.70
2023-04-30T03:25:07.694Z,4.25
2023-04-30T03:27:34.085Z,5.35
2023-04-30T03:30:00.574Z,8.48
2023-04-30T03:32:27.091Z,5.80
2023-04-30T03:34:53.475Z,5.57
2023-04-30T03:37:19.811Z,5.70
2023-04-30T03:39:46.251Z,5.60
2023-04-30T03:42:12.845Z,3.90
2023-04-30T03:44:39.248Z,3.25
2023-04-30T03:47:05.585Z,4.13
2023-04-30T03:49:32.525Z,5.25
2023-04-30T03:51:59.329Z,5.30
2023-04-30T03:54:25.866Z,4.32
2023-04-30T03:56:52.252Z,4.50
2023-04-30T03:59:18.657Z,3.67
2023-04-30T04:01:45.112Z,4.78
2023-04-30T04:04:11.692Z,3.25
2023-04-30T04:06:38.240Z,4.13
2023-04-30T04:09:05.004Z,3.17
2023-04-30T04:11:31.437Z,5.27
2023-04-30T04:13:57.850Z,3.70
2023-04-30T04:16:24.276Z,3.20
2023-04-30T04:18:50.892Z,16.63
2023-04-30T04:21:17.242Z,37.30
2023-04-30T04:23:43.619Z,4.60
2023-04-30T04:26:10.439Z,4.70
2023-04-30T04:28:38.074Z,5.90
2023-04-30T04:31:04.908Z,3.15
2023-04-30T04:33:31.575Z,3.47
2023-04-30T04:35:57.936Z,5.53
2023-04-30T04:38:24.289Z,2.65
2023-04-30T04:40:54.160Z,3.35
2023-04-30T04:43:20.735Z,2.78
2023-04-30T04:45:47.993Z,4.30
2023-04-30T04:48:14.868Z,2.03
2023-04-30T04:50:41.629Z,2.08
2023-04-30T04:53:08.021Z,6.43
2023-04-30T04:55:34.781Z,5.45
2023-04-30T04:58:01.477Z,4.72
2023-04-30T05:00:28.436Z,2.73
2023-04-30T05:02:55.320Z,3.40
2023-04-30T05:05:21.866Z,2.58
2023-04-30T05:07:50.389Z,2.22
2023-04-30T05:10:16.823Z,3.47
2023-04-30T05:12:43.120Z,3.67
2023-04-30T05:15:09.892Z,2.58
2023-04-30T05:17:36.284Z,1.60
2023-04-30T05:20:02.707Z,1.83
2023-04-30T05:22:29.198Z,2.97
2023-04-30T05:24:55.886Z,3.33
2023-04-30T05:27:22.298Z,2.58
2023-04-30T05:29:48.693Z,2.78
2023-04-30T05:32:15.047Z,4.55
2023-04-30T05:34:41.411Z,4.57
2023-04-30T05:37:07.782Z,4.30
2023-04-30T05:39:34.284Z,7.00
2023-04-30T05:42:02.389Z,8.13
2023-04-30T05:44:30.417Z,4.20
2023-04-30T05:46:56.846Z,8.23
2023-04-30T05:49:23.279Z,6.73
2023-04-30T05:51:49.662Z,5.35
2023-04-30T05:54:16.271Z,5.28
2023-04-30T05:56:42.980Z,4.15
2023-04-30T05:59:09.294Z,4.15
2023-04-30T06:01:35.705Z,5.57
2023-04-30T06:04:03.937Z,3.22
2023-04-30T06:06:31.367Z,5.45
2023-04-30T06:08:57.885Z,4.95
2023-04-30T06:11:25.767Z,5.88
2023-04-30T06:13:52.105Z,5.07
2023-04-30T06:16:18.515Z,9.82
2023-04-30T06:18:45.299Z,8.32
2023-04-30T06:21:11.688Z,5.05
2023-04-30T06:23:38.059Z,3.33
2023-04-30T06:26:04.638Z,3.77
2023-04-30T06:28:31.017Z,3.13
2023-04-30T06:30:57.454Z,3.97
2023-04-30T06:33:23.832Z,2.72
2023-04-30T06:35:55.478Z,5.20
2023-04-30T06:38:21.847Z,5.03
2023-04-30T06:40:48.284Z,3.00
2023-04-30T06:43:14.669Z,4.78
2023-04-30T06:45:41.058Z,7.07
2023-04-30T06:48:07.698Z,4.80
2023-04-30T06:50:34.289Z,3.53
2023-04-30T06:53:00.942Z,4.18
2023-04-30T06:55:28.065Z,4.57
2023-04-30T06:57:54.481Z,2.63
2023-04-30T07:00:20.932Z,3.22
2023-04-30T07:02:51.248Z,4.80
2023-04-30T07:05:18.634Z,6.18
2023-04-30T07:07:45.564Z,4.35
2023-04-30T07:10:12.753Z,6.43
2023-04-30T07:12:39.169Z,5.35
2023-04-30T07:15:05.945Z,5.07
2023-04-30T07:17:32.332Z,3.70
2023-04-30T07:19:58.960Z,4.97
2023-04-30T07:22:25.388Z,5.75
2023-04-30T07:24:51.735Z,5.10
2023-04-30T07:27:18.060Z,7.20
2023-04-30T07:29:44.371Z,4.22
2023-04-30T07:32:10.906Z,3.63
2023-04-30T07:34:37.385Z,5.63
2023-04-30T07:37:03.767Z,2.97
2023-04-30T07:39:30.916Z,3.67
2023-04-30T07:41:57.254Z,2.15
2023-04-30T07:44:23.602Z,8.85
2023-04-30T07:46:49.974Z,3.97
2023-04-30T07:49:16.314Z,4.50
2023-04-30T07:51:42.948Z,3.63
2023-04-30T07:54:09.320Z,3.38
2023-04-30T07:56:36.056Z,4.28
2023-04-30T07:59:02.447Z,2.95
2023-04-30T08:01:29.008Z,4.03
2023-04-30T08:03:55.896Z,4.67
2023-04-30T08:06:22.758Z,6.05
2023-04-30T08:08:50.442Z,4.85
2023-04-30T08:11:16.973Z,3.90
2023-04-30T08:13:43.356Z,2.75
2023-04-30T08:16:09.752Z,3.30
2023-04-30T08:18:38.709Z,4.10
2023-04-30T08:21:05.762Z,3.20
2023-04-30T08:23:32.207Z,4.13
2023-04-30T08:25:58.516Z,6.30
2023-04-30T08:28:24.867Z,4.90
2023-04-30T08:30:51.263Z,4.05
2023-04-30T08:33:17.737Z,3.80
2023-04-30T08:35:44.134Z,3.30
2023-04-30T08:38:10.750Z,3.25
2023-04-30T08:40:50.183Z,4.00
2023-04-30T08:43:18.444Z,3.13
2023-04-30T08:45:45.407Z,4.63
2023-04-30T08:48:15.142Z,3.00
2023-04-30T08:50:41.916Z,2.75
2023-04-30T08:53:10.883Z,3.27
2023-04-30T08:55:40.221Z,4.35
2023-04-30T08:58:08.287Z,4.22
2023-04-30T09:00:37.695Z,5.10
2023-04-30T09:03:05.000Z,4.43
2023-04-30T09:05:31.547Z,4.40
2023-04-30T09:08:03.716Z,2.45
2023-04-30T09:10:34.626Z,1.70
2023-04-30T09:13:09.029Z,3.40
2023-04-30T09:15:37.937Z,5.60
2023-04-30T09:18:18.244Z,2.57
2023-04-30T09:21:02.015Z,1.48
2023-04-30T09:23:30.100Z,3.22
2023-04-30T09:25:57.070Z,2.97
2023-04-30T09:28:26.345Z,2.78
2023-04-30T09:30:53.322Z,3.07
2023-04-30T09:33:20.373Z,2.72
2023-04-30T09:35:46.776Z,3.33
2023-04-30T09:38:46.010Z,2.28
2023-04-30T09:41:24.366Z,2.78
2023-04-30T09:43:51.201Z,2.80
2023-04-30T09:46:19.668Z,2.10
2023-04-30T09:48:46.303Z,1.95
2023-04-30T09:51:12.755Z,1.73
2023-04-30T09:53:41.864Z,3.22
2023-04-30T09:56:09.156Z,2.33
2023-04-30T09:58:39.329Z,1.95
2023-04-30T10:01:11.316Z,2.70
2023-04-30T10:03:42.992Z,2.05
2023-04-30T10:06:13.120Z,1.58
2023-04-30T10:08:42.447Z,2.40
2023-04-30T10:11:12.813Z,2.35
2023-04-30T10:14:08.751Z,2.00
2023-04-30T10:16:55.132Z,3.08
2023-04-30T10:19:33.219Z,2.78
2023-04-30T10:21:59.609Z,3.73
2023-04-30T10:24:27.285Z,1.40
2023-04-30T10:26:55.270Z,1.77
2023-04-30T10:29:21.621Z,5.55
2023-04-30T10:31:50.015Z,2.95
2023-04-30T10:34:42.411Z,2.73
2023-04-30T10:37:43.683Z,1.60
2023-04-30T10:40:10.435Z,1.95
2023-04-30T10:42:37.000Z,2.83
2023-04-30T10:45:03.948Z,1.77
2023-04-30T10:47:31.042Z,2.03
2023-04-30T10:50:04.649Z,1.80
2023-04-30T10:52:31.163Z,1.98
2023-04-30T10:54:57.623Z,1.42
2023-04-30T10:57:24.989Z,2.00
2023-04-30T11:00:20.435Z,2.27
2023-04-30T11:02:48.781Z,4.85
2023-04-30T11:05:15.338Z,2.38
2023-04-30T11:07:49.820Z,2.67
2023-04-30T11:10:16.991Z,1.80
2023-04-30T11:12:54.335Z,2.47
2023-04-30T11:15:24.341Z,1.92
2023-04-30T11:17:51.493Z,1.98
2023-04-30T11:20:24.633Z,3.40
2023-04-30T11:23:25.027Z,1.98
2023-04-30T11:25:57.723Z,1.20
2023-04-30T11:28:26.204Z,2.72
2023-04-30T11:30:54.233Z,1.67
2023-04-30T11:33:22.164Z,2.03
2023-04-30T11:35:52.702Z,1.95
2023-04-30T11:38:26.729Z,1.30
2023-04-30T11:40:54.894Z,4.85
2023-04-30T11:43:29.093Z,2.80
2023-04-30T11:46:11.633Z,2.65
2023-04-30T11:48:43.599Z,3.50
2023-04-30T11:51:21.124Z,1.43
2023-04-30T11:53:49.000Z,1.08
2023-04-30T11:56:24.342Z,1.50
2023-04-30T11:58:52.828Z,4.30
2023-04-30T12:01:20.992Z,1.70
2023-04-30T12:03:49.869Z,1.80
2023-04-30T12:06:24.579Z,2.00
2023-04-30T12:08:58.293Z,1.65
2023-04-30T12:11:27.105Z,1.15
2023-04-30T12:14:00.578Z,1.27
2023-04-30T12:16:28.669Z,1.43
2023-04-30T12:18:56.235Z,2.22
2023-04-30T12:21:23.215Z,2.33
2023-04-30T12:23:49.831Z,1.30
2023-04-30T12:26:16.196Z,2.00
2023-04-30T12:28:42.632Z,1.87
2023-04-30T12:31:08.983Z,1.27
2023-04-30T12:33:37.187Z,3.72
2023-04-30T12:36:03.779Z,1.70
2023-04-30T12:38:30.217Z,4.55
2023-04-30T12:40:56.633Z,1.80
2023-04-30T12:43:23.045Z,2.28
2023-04-30T12:45:51.867Z,1.65
2023-04-30T12:48:20.359Z,0.50
2023-04-30T12:51:01.329Z,4.82
2023-04-30T12:53:28.745Z,2.27
2023-04-30T12:56:12.803Z,2.13
2023-04-30T12:58:40.249Z,1.05
2023-04-30T13:01:11.783Z,1.60
2023-04-30T13:03:38.590Z,1.13
2023-04-30T13:06:06.790Z,2.53
2023-04-30T13:08:42.248Z,1.05
2023-04-30T13:11:16.705Z,2.15
2023-04-30T13:13:43.550Z,1.85
2023-04-30T13:16:10.159Z,0.80
2023-04-30T13:18:37.110Z,3.40
2023-04-30T13:21:03.925Z,1.10
2023-04-30T13:23:31.925Z,3.72
2023-04-30T13:26:00.446Z,0.45
2023-04-30T13:28:26.823Z,4.97
2023-04-30T13:30:53.225Z,1.00
2023-04-30T13:33:19.584Z,1.02
2023-04-30T13:35:46.533Z,1.85
2023-04-30T13:38:12.938Z,0.75
2023-04-30T13:40:39.303Z,1.35
2023-04-30T13:43:05.653Z,1.03
2023-04-30T13:45:32.060Z,0.73
2023-04-30T13:47:58.405Z,0.60
2023-04-30T13:50:24.989Z,1.02
2023-04-30T13:52:51.323Z,1.33
2023-04-30T13:55:17.641Z,0.70
2023-04-30T13:57:44.062Z,1.38
2023-04-30T14:00:11.010Z,1.00
2023-04-30T14:02:37.575Z,0.70
2023-04-30T14:05:06.651Z,1.25
2023-04-30T14:07:33.865Z,2.53
2023-04-30T14:10:00.321Z,1.05
2023-04-30T14:12:26.684Z,0.75
2023-04-30T14:14:52.970Z,1.52
2023-04-30T14:17:19.471Z,0.50
2023-04-30T14:19:46.081Z,0.97
2023-04-30T14:22:12.527Z,1.17
2023-04-30T14:24:39.002Z,0.70
2023-04-30T14:27:05.479Z,0.50
2023-04-30T14:29:31.940Z,0.60
2023-04-30T14:31:58.389Z,2.03
2023-04-30T14:34:25.441Z,1.65
2023-04-30T14:36:51.827Z,1.02
2023-04-30T14:39:18.159Z,1.45
2023-04-30T14:41:44.603Z,2.25
2023-04-30T14:44:10.973Z,2.63
2023-04-30T14:46:37.620Z,0.55
2023-04-30T14:49:04.380Z,0.88
2023-04-30T14:51:32.240Z,0.60
2023-04-30T14:53:59.316Z,1.92
2023-04-30T14:56:25.799Z,1.20
2023-04-30T14:58:52.202Z,0.88
2023-04-30T15:01:18.710Z,1.00
2023-04-30T15:03:45.946Z,0.70
2023-04-30T15:06:13.677Z,2.13
2023-04-30T15:08:40.779Z,1.77
2023-04-30T15:11:09.673Z,0.82
2023-04-30T15:13:37.468Z,1.02
2023-04-30T15:16:04.526Z,1.77
2023-04-30T15:18:31.832Z,1.27
2023-04-30T15:20:58.510Z,1.33
2023-04-30T15:23:25.049Z,1.30
2023-04-30T15:25:51.516Z,1.42
2023-04-30T15:28:18.540Z,0.52
2023-04-30T15:30:45.245Z,1.30
2023-04-30T15:33:12.630Z,2.37
2023-04-30T15:35:39.864Z,1.58
2023-04-30T15:38:06.368Z,0.43
2023-04-30T15:40:32.760Z,0.60
2023-04-30T15:42:59.128Z,0.85
2023-04-30T15:45:27.402Z,2.23
2023-04-30T15:47:53.963Z,0.70
2023-04-30T15:50:20.433Z,1.70
2023-04-30T15:52:47.150Z,0.30
2023-04-30T15:55:13.463Z,0.50
2023-04-30T15:57:39.810Z,0.57
2023-04-30T16:00:06.922Z,0.75
2023-04-30T16:02:33.287Z,0.60
2023-04-30T16:04:59.601Z,0.40
2023-04-30T16:07:25.979Z,0.75
2023-04-30T16:09:53.245Z,1.03
2023-04-30T16:12:20.003Z,0.43
2023-04-30T16:14:46.332Z,0.73
2023-04-30T16:17:12.798Z,1.10
2023-04-30T16:19:39.196Z,0.77
2023-04-30T16:22:05.977Z,2.87
2023-04-30T16:24:32.303Z,0.57
2023-04-30T16:26:58.825Z,0.40
2023-04-30T16:29:25.748Z,1.35
2023-04-30T16:31:52.340Z,0.70
2023-04-30T16:34:18.849Z,1.90
2023-04-30T16:36:46.036Z,0.65
2023-04-30T16:39:12.462Z,2.05
2023-04-30T16:41:38.817Z,2.55
2023-04-30T16:44:05.490Z,2.30
2023-04-30T16:46:31.996Z,0.80
2023-04-30T16:48:58.426Z,0.80
2023-04-30T16:51:24.796Z,2.08
2023-04-30T16:53:51.155Z,1.73
2023-04-30T16:56:17.613Z,0.55
2023-04-30T16:58:43.972Z,1.73
2023-04-30T17:01:10.561Z,0.40
2023-04-30T17:03:37.139Z,0.52
2023-04-30T17:06:05.735Z,0.80
2023-04-30T17:08:32.245Z,1.30
2023-04-30T17:10:58.631Z,0.93
2023-04-30T17:13:25.054Z,1.60
2023-04-30T17:15:51.593Z,0.60
2023-04-30T17:18:18.282Z,1.38
2023-04-30T17:20:46.352Z,1.23
2023-04-30T17:23:12.724Z,0.77
2023-04-30T17:25:39.195Z,1.58
2023-04-30T17:28:05.753Z,1.77
2023-04-30T17:30:32.147Z,0.73
2023-04-30T17:33:00.178Z,1.65
2023-04-30T17:35:27.419Z,0.80
2023-04-30T17:37:54.026Z,1.85
2023-04-30T17:40:20.505Z,0.55
2023-04-30T17:42:47.067Z,0.88
2023-04-30T17:45:13.736Z,0.98
2023-04-30T17:47:40.299Z,0.93
2023-04-30T17:50:08.459Z,2.00
2023-04-30T17:52:38.295Z,2.50
2023-04-30T17:55:08.434Z,0.45
2023-04-30T17:57:35.448Z,1.50
2023-04-30T18:00:02.041Z,0.70
2023-04-30T18:02:29.300Z,0.98
2023-04-30T18:04:55.719Z,3.08
2023-04-30T18:07:22.127Z,1.67
2023-04-30T18:09:48.426Z,5.00
2023-04-30T18:12:14.890Z,2.10
2023-04-30T18:14:41.263Z,1.75
2023-04-30T18:17:07.644Z,1.00
2023-04-30T18:19:37.593Z,1.42
2023-04-30T18:22:04.308Z,1.20
2023-04-30T18:24:31.381Z,2.80
2023-04-30T18:26:57.708Z,2.22
2023-04-30T18:29:24.680Z,1.55
2023-04-30T18:31:51.120Z,0.60
2023-04-30T18:34:17.532Z,1.85
2023-04-30T18:36:43.949Z,1.93
2023-04-30T18:39:12.388Z,2.05
2023-04-30T18:41:38.798Z,1.63
2023-04-30T18:44:05.643Z,1.35
2023-04-30T18:46:31.995Z,1.58
2023-04-30T18:48:58.312Z,3.07
2023-04-30T18:51:24.730Z,0.90
2023-04-30T18:53:51.117Z,2.95
2023-04-30T18:56:17.513Z,1.67
2023-04-30T18:58:46.220Z,4.70
2023-04-30T19:01:12.717Z,1.67
2023-04-30T19:03:39.340Z,1.75
2023-04-30T19:06:05.785Z,0.77
2023-04-30T19:08:32.186Z,2.15
2023-04-30T19:10:58.640Z,2.25
2023-04-30T19:13:25.055Z,1.30
2023-04-30T19:15:52.918Z,0.93
2023-04-30T19:18:20.465Z,2.22
2023-04-30T19:21:00.257Z,0.95
2023-04-30T19:23:30.084Z,2.35
2023-04-30T19:25:57.774Z,2.63
2023-04-30T19:28:24.351Z,3.85
2023-04-30T19:30:55.552Z,1.45
2023-04-30T19:33:25.484Z,1.23
2023-04-30T19:35:55.117Z,2.75
2023-04-30T19:38:21.833Z,0.80
2023-04-30T19:40:54.913Z,0.80
2023-04-30T19:43:22.555Z,1.67
2023-04-30T19:45:52.736Z,3.20
2023-04-30T19:48:20.058Z,4.60
2023-04-30T19:50:46.787Z,1.27
2023-04-30T19:53:17.112Z,2.65
2023-04-30T19:55:44.176Z,2.33
2023-04-30T19:58:10.711Z,2.45
2023-04-30T20:00:38.389Z,2.33
2023-04-30T20:03:05.379Z,1.17
2023-04-30T20:05:32.558Z,0.98
2023-04-30T20:07:59.557Z,3.42
2023-04-30T20:10:26.033Z,4.93
2023-04-30T20:12:53.454Z,3.47
2023-04-30T20:15:20.533Z,2.03
2023-04-30T20:17:47.337Z,1.80
2023-04-30T20:20:14.197Z,2.08
2023-04-30T20:22:40.561Z,2.53
2023-04-30T20:25:08.069Z,1.95
2023-04-30T20:27:34.432Z,1.03
2023-04-30T20:30:01.267Z,1.40
2023-04-30T20:32:27.647Z,1.67
2023-04-30T20:34:54.127Z,3.70
2023-04-30T20:37:20.580Z,1.40
2023-04-30T20:39:46.959Z,2.80
2023-04-30T20:42:13.413Z,1.30
2023-04-30T20:44:39.737Z,1.45
2023-04-30T20:47:06.320Z,3.17
2023-04-30T20:49:32.780Z,2.58
2023-04-30T20:51:59.099Z,4.00
2023-04-30T20:54:25.775Z,3.65
2023-04-30T20:56:52.116Z,2.53
2023-04-30T20:59:18.436Z,4.53
2023-04-30T21:01:44.920Z,2.22
2023-04-30T21:04:11.585Z,1.87
2023-04-30T21:06:38.219Z,2.47
2023-04-30T21:09:05.152Z,1.67
2023-04-30T21:11:33.208Z,4.63
2023-04-30T21:13:59.626Z,1.60
2023-04-30T21:16:27.543Z,3.23
2023-04-30T21:18:53.880Z,5.03
2023-04-30T21:21:20.282Z,2.75
2023-04-30T21:23:48.261Z,2.33
2023-04-30T21:26:14.905Z,3.15
2023-04-30T21:28:41.666Z,3.13
2023-04-30T21:31:09.151Z,1.80
2023-04-30T21:33:36.483Z,2.78
2023-04-30T21:36:06.581Z,2.95
2023-04-30T21:38:34.208Z,6.75
2023-04-30T21:41:01.276Z,3.43
2023-04-30T21:43:27.780Z,3.58
2023-04-30T21:45:54.169Z,3.70
2023-04-30T21:48:20.589Z,4.35
2023-04-30T21:50:47.815Z,1.60
2023-04-30T21:53:16.063Z,3.10
2023-04-30T21:55:42.544Z,2.65
2023-04-30T21:58:08.937Z,2.40
2023-04-30T22:00:35.666Z,4.07
2023-04-30T22:03:01.996Z,4.03
2023-04-30T22:05:28.466Z,2.63
2023-04-30T22:07:55.024Z,2.05
2023-04-30T22:10:21.389Z,5.43
2023-04-30T22:12:48.223Z,1.83
2023-04-30T22:15:15.105Z,4.53
2023-04-30T22:17:41.680Z,3.70
2023-04-30T22:20:08.793Z,2.28
2023-04-30T22:22:36.246Z,2.15
2023-04-30T22:25:02.800Z,4.78
2023-04-30T22:27:29.188Z,2.75
2023-04-30T22:29:55.723Z,3.27
2023-04-30T22:32:22.724Z,1.60
2023-04-30T22:34:50.512Z,9.50
2023-04-30T22:37:16.826Z,3.30
2023-04-30T22:39:43.200Z,1.98
2023-04-30T22:42:09.994Z,1.63
2023-04-30T22:44:37.796Z,2.60
2023-04-30T22:47:04.280Z,2.25
2023-04-30T22:49:32.001Z,2.47
2023-04-30T22:51:58.948Z,1.55
2023-04-30T22:54:25.496Z,3.57
2023-04-30T22:56:52.267Z,3.08
2023-04-30T22:59:18.616Z,2.72
2023-04-30T23:01:45.034Z,3.65
2023-04-30T23:04:12.543Z,2.20
2023-04-30T23:06:39.138Z,2.47
2023-04-30T23:09:05.698Z,3.38
2023-04-30T23:11:32.231Z,4.88
2023-04-30T23:13:58.592Z,2.83
2023-04-30T23:16:25.033Z,1.55
2023-04-30T23:18:51.508Z,1.03
2023-04-30T23:21:17.874Z,1.75
2023-04-30T23:23:44.268Z,3.72
2023-04-30T23:26:10.765Z,2.63
2023-04-30T23:28:37.979Z,2.55
2023-04-30T23:31:04.403Z,3.07
2023-04-30T23:33:30.836Z,2.13
2023-04-30T23:35:57.206Z,2.33
2023-04-30T23:38:23.567Z,1.60
2023-04-30T23:40:49.885Z,2.35
2023-04-30T23:43:16.220Z,3.80
2023-04-30T23:45:42.701Z,2.65
2023-04-30T23:48:10.306Z,5.32
2023-04-30T23:50:38.085Z,2.10
2023-04-30T23:53:04.545Z,4.13
2023-04-30T23:55:30.973Z,6.30
2023-04-30T23:57:57.377Z,1.67
